createdAt,value
2024-05-09T00:00:31.645Z,9.40
2024-05-09T00:01:32.235Z,9.41
2024-05-09T00:02:34.690Z,9.41
2024-05-09T00:03:37.070Z,9.41
2024-05-09T00:04:39.286Z,9.41
2024-05-09T00:05:42.992Z,9.42
2024-05-09T00:06:45.576Z,9.41
2024-05-09T00:07:47.930Z,9.39
2024-05-09T00:08:50.109Z,9.35
2024-05-09T00:09:52.518Z,9.33
2024-05-09T00:10:55.004Z,9.30
2024-05-09T00:11:57.366Z,9.29
2024-05-09T00:12:59.679Z,9.27
2024-05-09T00:14:02.066Z,9.27
2024-05-09T00:15:05.675Z,9.25
2024-05-09T00:16:09.234Z,9.21
2024-05-09T00:17:11.672Z,9.20
2024-05-09T00:18:14.274Z,9.15
2024-05-09T00:19:16.812Z,9.12
2024-05-09T00:20:24.596Z,9.09
2024-05-09T00:21:23.479Z,9.05
2024-05-09T00:22:25.735Z,9.01
2024-05-09T00:23:27.733Z,8.97
2024-05-09T00:24:29.932Z,8.94
2024-05-09T00:25:32.414Z,8.93
2024-05-09T00:26:34.784Z,8.90
2024-05-09T00:27:37.189Z,8.88
2024-05-09T00:28:39.228Z,8.84
2024-05-09T00:29:41.551Z,8.79
2024-05-09T00:30:43.904Z,8.73
2024-05-09T00:31:46.236Z,8.69
2024-05-09T00:32:48.411Z,8.67
2024-05-09T00:33:51.126Z,8.62
2024-05-09T00:34:53.787Z,8.58
2024-05-09T00:35:56.087Z,8.55
2024-05-09T00:36:58.629Z,8.52
2024-05-09T00:38:01.317Z,8.47
2024-05-09T00:39:03.913Z,8.44
2024-05-09T00:40:14.884Z,8.40
2024-05-09T00:41:11.984Z,8.37
2024-05-09T00:42:14.317Z,8.34
2024-05-09T00:43:16.545Z,8.32
2024-05-09T00:44:19.001Z,8.28
2024-05-09T00:45:21.439Z,8.26
2024-05-09T00:46:25.226Z,8.23
2024-05-09T00:47:27.680Z,8.18
2024-05-09T00:48:30.404Z,8.12
2024-05-09T00:49:35.852Z,8.07
2024-05-09T00:50:40.507Z,8.03
2024-05-09T00:51:43.375Z,7.98
2024-05-09T00:52:46.021Z,7.95
2024-05-09T00:53:48.626Z,7.90
2024-05-09T00:54:50.870Z,7.87
2024-05-09T00:55:54.372Z,7.85
2024-05-09T00:56:57.046Z,7.82
2024-05-09T00:57:59.911Z,7.82
2024-05-09T00:59:02.492Z,7.82
2024-05-09T01:00:12.184Z,7.81
2024-05-09T01:01:11.716Z,7.78
2024-05-09T01:02:15.040Z,7.75
2024-05-09T01:03:17.523Z,7.74
2024-05-09T01:04:20.449Z,7.70
2024-05-09T01:05:23.002Z,7.68
2024-05-09T01:06:25.651Z,7.65
2024-05-09T01:07:28.612Z,7.62
2024-05-09T01:08:31.263Z,7.59
2024-05-09T01:09:33.571Z,7.56
2024-05-09T01:10:36.886Z,7.55
2024-05-09T01:11:40.013Z,7.53
2024-05-09T01:12:42.268Z,7.51
2024-05-09T01:13:44.529Z,7.49
2024-05-09T01:14:46.841Z,7.48
2024-05-09T01:15:49.247Z,7.45
2024-05-09T01:16:51.804Z,7.41
2024-05-09T01:17:54.500Z,7.37
2024-05-09T01:18:58.757Z,7.35
2024-05-09T01:20:00.999Z,7.33
2024-05-09T01:21:03.688Z,7.33
2024-05-09T01:22:06.087Z,7.31
2024-05-09T01:23:09.014Z,7.29
2024-05-09T01:24:11.630Z,7.26
2024-05-09T01:25:14.138Z,7.24
2024-05-09T01:26:16.623Z,7.23
2024-05-09T01:27:18.957Z,7.21
2024-05-09T01:28:20.991Z,7.18
2024-05-09T01:29:23.374Z,7.16
2024-05-09T01:30:32.992Z,7.16
2024-05-09T01:31:30.028Z,7.13
2024-05-09T01:32:32.555Z,7.09
2024-05-09T01:33:35.228Z,7.07
2024-05-09T01:34:37.507Z,7.06
2024-05-09T01:35:39.802Z,7.05
2024-05-09T01:36:42.119Z,7.05
2024-05-09T01:37:44.604Z,7.03
2024-05-09T01:38:46.926Z,7.03
2024-05-09T01:39:49.263Z,7.01
2024-05-09T01:40:51.900Z,6.99
2024-05-09T01:41:54.247Z,6.98
2024-05-09T01:42:56.543Z,6.97
2024-05-09T01:43:58.866Z,6.96
2024-05-09T01:45:01.292Z,6.95
2024-05-09T01:46:04.006Z,6.92
2024-05-09T01:47:06.160Z,6.89
2024-05-09T01:48:09.348Z,6.86
2024-05-09T01:49:12.526Z,6.83
2024-05-09T01:50:16.668Z,6.81
2024-05-09T01:51:19.218Z,6.81
2024-05-09T01:52:21.682Z,6.81
2024-05-09T01:53:23.983Z,6.82
2024-05-09T01:54:26.426Z,6.80
2024-05-09T01:55:30.562Z,6.79
2024-05-09T01:56:32.955Z,6.78
2024-05-09T01:57:35.408Z,6.76
2024-05-09T01:58:37.689Z,6.75
2024-05-09T01:59:39.951Z,6.74
2024-05-09T02:00:43.450Z,6.74
2024-05-09T02:01:56.501Z,6.71
2024-05-09T02:02:50.274Z,6.71
2024-05-09T02:03:53.095Z,6.70
2024-05-09T02:04:55.711Z,6.70
2024-05-09T02:05:58.122Z,6.69
2024-05-09T02:07:00.726Z,6.69
2024-05-09T02:08:03.485Z,6.67
2024-05-09T02:09:06.003Z,6.67
2024-05-09T02:10:16.169Z,6.66
2024-05-09T02:11:13.065Z,6.67
2024-05-09T02:12:15.648Z,6.65
2024-05-09T02:13:18.225Z,6.64
2024-05-09T02:14:20.850Z,6.65
2024-05-09T02:15:23.068Z,6.64
2024-05-09T02:16:25.451Z,6.64
2024-05-09T02:17:28.116Z,6.64
2024-05-09T02:18:30.578Z,6.63
2024-05-09T02:19:33.150Z,6.63
2024-05-09T02:20:38.202Z,6.62
2024-05-09T02:21:40.499Z,6.59
2024-05-09T02:22:42.871Z,6.59
2024-05-09T02:23:45.244Z,6.58
2024-05-09T02:24:47.526Z,6.57
2024-05-09T02:25:50.063Z,6.56
2024-05-09T02:26:52.932Z,6.56
2024-05-09T02:27:54.916Z,6.58
2024-05-09T02:28:57.271Z,6.58
2024-05-09T02:29:59.551Z,6.60
2024-05-09T02:31:02.006Z,6.60
2024-05-09T02:32:04.922Z,6.61
2024-05-09T02:33:08.685Z,6.61
2024-05-09T02:34:11.964Z,6.61
2024-05-09T02:35:14.604Z,6.62
2024-05-09T02:36:19.831Z,6.62
2024-05-09T02:37:22.183Z,6.61
2024-05-09T02:38:24.421Z,6.60
2024-05-09T02:39:27.062Z,6.59
2024-05-09T02:40:36.426Z,6.58
2024-05-09T02:41:33.683Z,6.60
2024-05-09T02:42:36.252Z,6.59
2024-05-09T02:43:38.760Z,6.60
2024-05-09T02:44:40.808Z,6.60
2024-05-09T02:45:43.079Z,6.60
2024-05-09T02:46:45.797Z,6.61
2024-05-09T02:47:48.160Z,6.61
2024-05-09T02:48:50.550Z,6.61
2024-05-09T02:49:53.032Z,6.63
2024-05-09T02:50:55.290Z,6.63
2024-05-09T02:51:57.617Z,6.63
2024-05-09T02:52:59.770Z,6.61
2024-05-09T02:54:02.138Z,6.61
2024-05-09T02:55:04.584Z,6.62
2024-05-09T02:56:07.443Z,6.61
2024-05-09T02:57:09.975Z,6.62
2024-05-09T02:58:12.506Z,6.64
2024-05-09T02:59:14.819Z,6.66
2024-05-09T03:00:22.817Z,6.70
2024-05-09T03:01:21.930Z,6.71
2024-05-09T03:02:24.236Z,6.74
2024-05-09T03:03:27.272Z,6.73
2024-05-09T03:04:30.345Z,6.71
2024-05-09T03:05:32.955Z,6.71
2024-05-09T03:06:40.971Z,6.73
2024-05-09T03:07:43.508Z,6.75
2024-05-09T03:08:46.730Z,6.74
2024-05-09T03:09:48.945Z,6.76
2024-05-09T03:10:51.405Z,6.77
2024-05-09T03:11:53.880Z,6.79
2024-05-09T03:12:56.322Z,6.77
2024-05-09T03:13:58.666Z,6.80
2024-05-09T03:15:01.090Z,6.83
2024-05-09T03:16:04.205Z,6.87
2024-05-09T03:17:07.123Z,6.92
2024-05-09T03:18:09.943Z,6.95
2024-05-09T03:19:12.883Z,6.96
2024-05-09T03:20:23.195Z,6.97
2024-05-09T03:21:19.391Z,6.98
2024-05-09T03:22:21.618Z,7.00
2024-05-09T03:23:23.840Z,6.98
2024-05-09T03:24:26.247Z,6.98
2024-05-09T03:25:28.522Z,6.99
2024-05-09T03:26:30.822Z,7.00
2024-05-09T03:27:33.230Z,7.03
2024-05-09T03:28:35.482Z,7.04
2024-05-09T03:29:37.794Z,7.06
2024-05-09T03:30:42.777Z,7.07
2024-05-09T03:31:44.584Z,7.09
2024-05-09T03:32:47.515Z,7.13
2024-05-09T03:33:49.984Z,7.14
2024-05-09T03:34:52.363Z,7.15
2024-05-09T03:35:54.587Z,7.18
2024-05-09T03:36:56.926Z,7.20
2024-05-09T03:37:59.538Z,7.20
2024-05-09T03:39:01.732Z,7.18
2024-05-09T03:40:09.300Z,7.17
2024-05-09T03:41:09.538Z,7.15
2024-05-09T03:42:11.842Z,7.12
2024-05-09T03:43:14.227Z,7.10
2024-05-09T03:44:17.088Z,7.12
2024-05-09T03:45:19.307Z,7.15
2024-05-09T03:46:21.745Z,7.18
2024-05-09T03:47:24.252Z,7.22
2024-05-09T03:48:26.927Z,7.24
2024-05-09T03:49:29.454Z,7.26
2024-05-09T03:50:35.547Z,7.29
2024-05-09T03:51:35.839Z,7.31
2024-05-09T03:52:38.174Z,7.36
2024-05-09T03:53:40.477Z,7.38
2024-05-09T03:54:45.961Z,7.42
2024-05-09T03:55:48.327Z,7.43
2024-05-09T03:56:50.797Z,7.45
2024-05-09T03:57:53.072Z,7.50
2024-05-09T03:58:56.246Z,7.52
2024-05-09T03:59:58.738Z,7.53
2024-05-09T04:01:01.090Z,7.55
2024-05-09T04:02:03.980Z,7.58
2024-05-09T04:03:09.276Z,7.63
2024-05-09T04:04:11.132Z,7.65
2024-05-09T04:05:14.446Z,7.67
2024-05-09T04:06:25.427Z,7.70
2024-05-09T04:07:27.950Z,7.71
2024-05-09T04:08:30.269Z,7.71
2024-05-09T04:09:32.588Z,7.73
2024-05-09T04:10:35.527Z,7.74
2024-05-09T04:11:38.399Z,7.74
2024-05-09T04:12:40.732Z,7.75
2024-05-09T04:13:42.925Z,7.77
2024-05-09T04:14:44.963Z,7.76
2024-05-09T04:15:47.122Z,7.77
2024-05-09T04:16:49.822Z,7.81
2024-05-09T04:17:52.137Z,7.81
2024-05-09T04:18:55.181Z,7.82
2024-05-09T04:19:57.630Z,7.86
2024-05-09T04:21:00.296Z,7.88
2024-05-09T04:22:02.713Z,7.90
2024-05-09T04:23:07.535Z,7.90
2024-05-09T04:24:10.700Z,7.92
2024-05-09T04:25:12.977Z,7.93
2024-05-09T04:26:15.745Z,7.95
2024-05-09T04:27:18.148Z,7.97
2024-05-09T04:28:20.326Z,7.97
2024-05-09T04:29:22.596Z,8.00
2024-05-09T04:30:34.568Z,8.02
2024-05-09T04:31:29.680Z,8.01
2024-05-09T04:32:32.872Z,8.00
2024-05-09T04:33:35.185Z,7.99
2024-05-09T04:34:37.691Z,7.96
2024-05-09T04:35:40.472Z,7.94
2024-05-09T04:36:44.673Z,7.97
2024-05-09T04:37:47.177Z,8.01
2024-05-09T04:38:49.602Z,8.02
2024-05-09T04:39:51.658Z,8.05
2024-05-09T04:40:54.001Z,8.05
2024-05-09T04:41:56.435Z,8.05
2024-05-09T04:42:58.591Z,8.08
2024-05-09T04:44:01.022Z,8.09
2024-05-09T04:45:03.972Z,8.07
2024-05-09T04:46:06.592Z,8.08
2024-05-09T04:47:08.897Z,8.11
2024-05-09T04:48:11.781Z,8.10
2024-05-09T04:49:14.558Z,8.10
2024-05-09T04:50:24.679Z,8.05
2024-05-09T04:51:21.140Z,8.05
2024-05-09T04:52:23.471Z,8.05
2024-05-09T04:53:25.768Z,8.06
2024-05-09T04:54:34.326Z,8.07
2024-05-09T04:55:32.575Z,8.09
2024-05-09T04:56:35.310Z,8.13
2024-05-09T04:57:37.466Z,8.19
2024-05-09T04:58:39.923Z,8.21
2024-05-09T04:59:42.229Z,8.19
2024-05-09T05:00:45.571Z,8.22
2024-05-09T05:01:48.034Z,8.24
2024-05-09T05:02:50.499Z,8.29
2024-05-09T05:03:53.724Z,8.34
2024-05-09T05:04:57.248Z,8.34
2024-05-09T05:05:59.998Z,8.36
2024-05-09T05:07:03.078Z,8.38
2024-05-09T05:08:11.055Z,8.42
2024-05-09T05:09:13.522Z,8.46
2024-05-09T05:10:21.586Z,8.51
2024-05-09T05:11:19.971Z,8.54
2024-05-09T05:12:22.502Z,8.57
2024-05-09T05:13:25.333Z,8.59
2024-05-09T05:14:27.654Z,8.56
2024-05-09T05:15:30.108Z,8.57
2024-05-09T05:16:32.749Z,8.54
2024-05-09T05:17:35.324Z,8.54
2024-05-09T05:18:38.182Z,8.56
2024-05-09T05:19:40.725Z,8.59
2024-05-09T05:20:43.667Z,8.63
2024-05-09T05:21:46.078Z,8.64
2024-05-09T05:22:48.246Z,8.65
2024-05-09T05:23:50.732Z,8.64
2024-05-09T05:24:53.204Z,8.62
2024-05-09T05:25:55.828Z,8.59
2024-05-09T05:26:58.601Z,8.61
2024-05-09T05:28:01.054Z,8.63
2024-05-09T05:29:03.523Z,8.66
2024-05-09T05:30:11.896Z,8.72
2024-05-09T05:31:11.154Z,8.81
2024-05-09T05:32:13.631Z,8.89
2024-05-09T05:33:16.487Z,8.91
2024-05-09T05:34:19.027Z,8.96
2024-05-09T05:35:21.617Z,9.02
2024-05-09T05:36:23.961Z,9.08
2024-05-09T05:37:26.091Z,9.09
2024-05-09T05:38:28.815Z,9.11
2024-05-09T05:39:31.359Z,9.13
2024-05-09T05:40:37.078Z,9.15
2024-05-09T05:41:38.017Z,9.15
2024-05-09T05:42:40.548Z,9.14
2024-05-09T05:43:42.951Z,9.15
2024-05-09T05:44:45.350Z,9.16
2024-05-09T05:45:47.722Z,9.20
2024-05-09T05:46:50.230Z,9.22
2024-05-09T05:47:53.765Z,9.26
2024-05-09T05:48:56.545Z,9.32
2024-05-09T05:49:59.381Z,9.40
2024-05-09T05:51:04.280Z,9.47
2024-05-09T05:52:06.356Z,9.51
2024-05-09T05:53:10.924Z,9.54
2024-05-09T05:54:13.372Z,9.55
2024-05-09T05:55:15.773Z,9.58
2024-05-09T05:56:18.384Z,9.60
2024-05-09T05:57:21.208Z,9.63
2024-05-09T05:58:23.657Z,9.67
2024-05-09T05:59:26.256Z,9.68
2024-05-09T06:00:35.010Z,9.70
2024-05-09T06:01:33.464Z,9.68
2024-05-09T06:02:36.059Z,9.72
2024-05-09T06:03:38.691Z,9.74
2024-05-09T06:04:42.207Z,9.75
2024-05-09T06:05:44.868Z,9.77
2024-05-09T06:06:48.233Z,9.77
2024-05-09T06:07:50.467Z,9.82
2024-05-09T06:08:52.854Z,9.87
2024-05-09T06:09:55.840Z,9.88
2024-05-09T06:10:58.494Z,9.93
2024-05-09T06:12:01.345Z,9.90
2024-05-09T06:13:04.288Z,9.89
2024-05-09T06:14:06.684Z,9.87
2024-05-09T06:15:08.877Z,9.88
2024-05-09T06:16:13.118Z,9.88
2024-05-09T06:17:15.458Z,9.93
2024-05-09T06:18:18.599Z,10.00
2024-05-09T06:19:21.380Z,10.08
2024-05-09T06:20:31.988Z,10.13
2024-05-09T06:21:28.208Z,10.14
2024-05-09T06:22:30.674Z,10.17
2024-05-09T06:23:33.058Z,10.19
2024-05-09T06:24:35.241Z,10.20
2024-05-09T06:25:38.097Z,10.22
2024-05-09T06:26:42.830Z,10.26
2024-05-09T06:27:45.465Z,10.31
2024-05-09T06:28:47.661Z,10.37
2024-05-09T06:29:50.075Z,10.41
2024-05-09T06:30:52.776Z,10.49
2024-05-09T06:31:58.593Z,10.55
2024-05-09T06:32:59.666Z,10.56
2024-05-09T06:34:02.393Z,10.54
2024-05-09T06:35:05.475Z,10.53
2024-05-09T06:36:08.226Z,10.55
2024-05-09T06:37:10.609Z,10.52
2024-05-09T06:38:12.984Z,10.47
2024-05-09T06:39:15.666Z,10.46
2024-05-09T06:40:25.461Z,10.46
2024-05-09T06:41:22.946Z,10.47
2024-05-09T06:42:26.120Z,10.49
2024-05-09T06:43:28.389Z,10.50
2024-05-09T06:44:30.793Z,10.52
2024-05-09T06:45:33.154Z,10.55
2024-05-09T06:46:35.768Z,10.55
2024-05-09T06:47:38.350Z,10.56
2024-05-09T06:48:42.707Z,10.57
2024-05-09T06:49:45.199Z,10.59
2024-05-09T06:50:48.802Z,10.60
2024-05-09T06:51:51.597Z,10.70
2024-05-09T06:52:53.951Z,10.82
2024-05-09T06:53:56.369Z,10.88
2024-05-09T06:54:58.952Z,10.92
2024-05-09T06:56:01.307Z,10.92
2024-05-09T06:57:04.418Z,10.91
2024-05-09T06:58:07.546Z,10.92
2024-05-09T06:59:09.895Z,10.96
2024-05-09T07:00:15.625Z,11.05
2024-05-09T07:01:17.058Z,11.16
2024-05-09T07:02:19.502Z,11.26
2024-05-09T07:03:22.800Z,11.34
2024-05-09T07:04:25.343Z,11.40
2024-05-09T07:05:27.887Z,11.42
2024-05-09T07:06:30.369Z,11.40
2024-05-09T07:07:32.842Z,11.41
2024-05-09T07:08:35.407Z,11.43
2024-05-09T07:09:37.786Z,11.55
2024-05-09T07:10:40.254Z,11.64
2024-05-09T07:11:42.794Z,11.64
2024-05-09T07:12:45.366Z,11.67
2024-05-09T07:13:49.792Z,11.70
2024-05-09T07:14:52.383Z,11.72
2024-05-09T07:15:56.729Z,11.75
2024-05-09T07:16:59.205Z,11.76
2024-05-09T07:18:10.667Z,11.75
2024-05-09T07:19:13.501Z,11.82
2024-05-09T07:20:23.511Z,11.88
2024-05-09T07:21:21.209Z,11.98
2024-05-09T07:22:23.529Z,12.03
2024-05-09T07:23:25.924Z,12.14
2024-05-09T07:24:28.315Z,12.19
2024-05-09T07:25:32.539Z,12.22
2024-05-09T07:26:35.311Z,12.25
2024-05-09T07:27:37.561Z,12.28
2024-05-09T07:28:40.050Z,12.31
2024-05-09T07:29:42.343Z,12.33
2024-05-09T07:30:45.323Z,12.33
2024-05-09T07:31:48.218Z,12.30
2024-05-09T07:32:51.174Z,12.25
2024-05-09T07:33:54.036Z,12.23
2024-05-09T07:34:56.604Z,12.26
2024-05-09T07:35:58.980Z,12.27
2024-05-09T07:37:01.927Z,12.31
2024-05-09T07:38:04.354Z,12.36
2024-05-09T07:39:06.846Z,12.40
2024-05-09T07:40:12.077Z,12.43
2024-05-09T07:41:13.716Z,12.41
2024-05-09T07:42:15.774Z,12.42
2024-05-09T07:43:18.121Z,12.44
2024-05-09T07:44:20.785Z,12.49
2024-05-09T07:45:41.674Z,12.50
2024-05-09T07:47:36.776Z,12.49
2024-05-09T07:48:57.459Z,12.47
2024-05-09T07:50:34.403Z,12.47
2024-05-09T07:53:20.373Z,12.68
2024-05-09T07:53:35.529Z,12.76
2024-05-09T07:54:00.612Z,12.80
2024-05-09T07:55:02.180Z,12.82
2024-05-09T07:56:06.407Z,12.90
2024-05-09T07:57:09.191Z,12.92
2024-05-09T07:58:11.683Z,12.87
2024-05-09T07:59:14.055Z,12.85
2024-05-09T08:00:20.477Z,12.82
2024-05-09T08:01:22.148Z,12.88
2024-05-09T08:02:25.072Z,12.93
2024-05-09T08:03:27.911Z,12.92
2024-05-09T08:04:30.532Z,12.95
2024-05-09T08:05:33.023Z,12.95
2024-05-09T08:06:35.874Z,12.93
2024-05-09T08:07:38.277Z,12.94
2024-05-09T08:08:40.614Z,13.03
2024-05-09T08:09:42.763Z,13.04
2024-05-09T08:10:45.701Z,13.04
2024-05-09T08:11:49.839Z,12.98
2024-05-09T08:12:52.854Z,13.00
2024-05-09T08:13:55.588Z,13.01
2024-05-09T08:14:58.357Z,13.10
2024-05-09T08:16:00.973Z,13.10
2024-05-09T08:17:03.990Z,13.09
2024-05-09T08:18:10.000Z,13.09
2024-05-09T08:19:12.794Z,13.04
2024-05-09T08:20:22.948Z,13.02
2024-05-09T08:21:19.889Z,13.02
2024-05-09T08:22:22.360Z,13.07
2024-05-09T08:23:24.665Z,13.10
2024-05-09T08:24:26.976Z,13.13
2024-05-09T08:25:30.510Z,13.16
2024-05-09T08:26:32.895Z,13.20
2024-05-09T08:27:35.243Z,13.27
2024-05-09T08:28:37.497Z,13.38
2024-05-09T08:29:39.957Z,13.45
2024-05-09T08:30:42.525Z,13.48
2024-05-09T08:31:45.007Z,13.44
2024-05-09T08:32:47.475Z,13.42
2024-05-09T08:33:50.095Z,13.46
2024-05-09T08:34:52.662Z,13.51
2024-05-09T08:35:55.304Z,13.55
2024-05-09T08:37:01.679Z,13.62
2024-05-09T08:38:03.165Z,13.63
2024-05-09T08:39:05.848Z,13.62
2024-05-09T08:40:16.626Z,13.65
2024-05-09T08:41:14.362Z,13.65
2024-05-09T08:42:17.194Z,13.67
2024-05-09T08:43:20.048Z,13.72
2024-05-09T08:44:22.895Z,13.73
2024-05-09T08:45:25.478Z,13.77
2024-05-09T08:46:28.627Z,13.85
2024-05-09T08:47:31.561Z,13.86
2024-05-09T08:48:35.960Z,13.85
2024-05-09T08:49:51.958Z,13.91
2024-05-09T08:50:54.509Z,13.96
2024-05-09T08:51:57.945Z,13.98
2024-05-09T08:53:00.421Z,13.94
2024-05-09T08:54:02.863Z,13.85
2024-05-09T08:55:05.994Z,13.87
2024-05-09T08:56:09.146Z,13.88
2024-05-09T08:57:12.745Z,13.97
2024-05-09T08:58:16.811Z,14.09
2024-05-09T08:59:23.005Z,14.20
2024-05-09T09:00:35.585Z,14.25
2024-05-09T09:01:31.482Z,14.26
2024-05-09T09:02:36.760Z,14.37
2024-05-09T09:03:40.085Z,14.43
2024-05-09T09:04:46.348Z,14.42
2024-05-09T09:05:57.968Z,14.39
2024-05-09T09:07:02.339Z,14.35
2024-05-09T09:08:07.463Z,14.24
2024-05-09T09:09:10.749Z,14.18
2024-05-09T09:10:21.217Z,14.16
2024-05-09T09:11:19.299Z,14.14
2024-05-09T09:12:21.484Z,14.15
2024-05-09T09:13:24.298Z,14.16
2024-05-09T09:14:26.627Z,14.18
2024-05-09T09:15:29.055Z,14.18
2024-05-09T09:16:36.472Z,14.19
2024-05-09T09:17:38.707Z,14.28
2024-05-09T09:18:43.363Z,14.40
2024-05-09T09:19:45.868Z,14.53
2024-05-09T09:20:48.477Z,14.54
2024-05-09T09:21:50.811Z,14.59
2024-05-09T09:22:54.671Z,14.50
2024-05-09T09:23:57.127Z,14.48
2024-05-09T09:24:59.600Z,14.47
2024-05-09T09:26:01.933Z,14.48
2024-05-09T09:27:04.984Z,14.47
2024-05-09T09:28:08.191Z,14.49
2024-05-09T09:29:10.920Z,14.53
2024-05-09T09:30:26.858Z,14.64
2024-05-09T09:31:19.164Z,14.71
2024-05-09T09:32:25.366Z,14.72
2024-05-09T09:33:27.924Z,14.72
2024-05-09T09:34:31.185Z,14.73
2024-05-09T09:35:34.788Z,14.74
2024-05-09T09:36:38.869Z,14.79
2024-05-09T09:37:45.155Z,14.81
2024-05-09T09:38:49.815Z,14.82
2024-05-09T09:39:52.588Z,14.78
2024-05-09T09:40:55.342Z,14.69
2024-05-09T09:42:01.625Z,14.55
2024-05-09T09:43:04.863Z,14.50
2024-05-09T09:44:08.854Z,14.48
2024-05-09T09:45:12.340Z,14.47
2024-05-09T09:46:15.737Z,14.47
2024-05-09T09:47:18.610Z,14.48
2024-05-09T09:48:22.188Z,14.54
2024-05-09T09:49:31.763Z,14.61
2024-05-09T09:50:35.632Z,14.65
2024-05-09T09:51:38.292Z,14.65
2024-05-09T09:52:40.907Z,14.65
2024-05-09T09:53:43.799Z,14.69
2024-05-09T09:54:48.046Z,14.73
2024-05-09T09:55:51.577Z,14.76
2024-05-09T09:56:55.433Z,14.78
2024-05-09T09:57:58.110Z,14.80
2024-05-09T09:59:02.408Z,14.83
2024-05-09T10:00:11.646Z,14.82
2024-05-09T10:01:13.616Z,14.84
2024-05-09T10:02:18.951Z,14.85
2024-05-09T10:03:22.165Z,14.74
2024-05-09T10:04:24.653Z,14.70
2024-05-09T10:05:28.836Z,14.71
2024-05-09T10:06:33.617Z,14.79
2024-05-09T10:07:41.472Z,14.93
2024-05-09T10:08:46.054Z,15.04
2024-05-09T10:09:48.682Z,15.14
2024-05-09T10:10:51.385Z,15.10
2024-05-09T10:11:59.748Z,15.02
2024-05-09T10:13:07.570Z,14.95
2024-05-09T10:14:10.224Z,14.83
2024-05-09T10:15:12.451Z,14.81
2024-05-09T10:16:18.478Z,14.80
2024-05-09T10:17:20.846Z,14.79
2024-05-09T10:18:23.463Z,14.83
2024-05-09T10:19:26.941Z,14.88
2024-05-09T10:20:41.974Z,14.87
2024-05-09T10:21:47.250Z,14.86
2024-05-09T10:22:49.686Z,14.88
2024-05-09T10:23:58.112Z,14.88
2024-05-09T10:25:05.917Z,14.89
2024-05-09T10:26:08.801Z,14.88
2024-05-09T10:27:11.307Z,14.85
2024-05-09T10:28:13.813Z,14.81
2024-05-09T10:29:18.169Z,14.81
2024-05-09T10:30:29.565Z,14.87
2024-05-09T10:31:29.633Z,14.94
2024-05-09T10:32:39.084Z,15.01
2024-05-09T10:33:50.261Z,15.12
2024-05-09T10:35:10.763Z,15.21
2024-05-09T10:36:16.103Z,15.24
2024-05-09T10:37:18.734Z,15.29
2024-05-09T10:38:21.085Z,15.31
2024-05-09T10:39:24.912Z,15.35
2024-05-09T10:40:31.399Z,15.37
2024-05-09T10:41:32.850Z,15.34
2024-05-09T10:42:36.818Z,15.30
2024-05-09T10:43:39.879Z,15.27
2024-05-09T10:44:42.123Z,15.33
2024-05-09T10:45:44.616Z,15.37
2024-05-09T10:46:47.080Z,15.34
2024-05-09T10:47:49.654Z,15.25
2024-05-09T10:48:52.219Z,15.08
2024-05-09T10:49:55.384Z,14.98
2024-05-09T10:50:58.117Z,14.99
2024-05-09T10:52:02.991Z,14.98
2024-05-09T10:53:05.599Z,14.94
2024-05-09T10:54:07.708Z,14.88
2024-05-09T10:55:09.997Z,14.82
2024-05-09T10:56:14.729Z,14.79
2024-05-09T10:57:18.167Z,14.87
2024-05-09T10:58:20.559Z,14.98
2024-05-09T10:59:23.051Z,15.01
2024-05-09T11:00:35.803Z,15.05
2024-05-09T11:01:36.212Z,15.11
2024-05-09T11:02:38.697Z,15.15
2024-05-09T11:03:41.808Z,15.19
2024-05-09T11:04:44.690Z,15.22
2024-05-09T11:05:47.308Z,15.23
2024-05-09T11:06:50.363Z,15.27
2024-05-09T11:07:53.173Z,15.35
2024-05-09T11:08:56.157Z,15.39
2024-05-09T11:09:58.676Z,15.37
2024-05-09T11:11:01.977Z,15.38
2024-05-09T11:12:05.412Z,15.43
2024-05-09T11:13:07.872Z,15.46
2024-05-09T11:14:13.580Z,15.46
2024-05-09T11:15:16.206Z,15.51
2024-05-09T11:16:20.209Z,15.62
2024-05-09T11:17:23.274Z,15.68
2024-05-09T11:18:30.377Z,15.61
2024-05-09T11:19:35.556Z,15.53
2024-05-09T11:20:38.470Z,15.54
2024-05-09T11:21:41.352Z,15.56
2024-05-09T11:22:43.854Z,15.54
2024-05-09T11:23:46.345Z,15.51
2024-05-09T11:24:48.725Z,15.50
2024-05-09T11:25:52.197Z,15.47
2024-05-09T11:26:56.776Z,15.46
2024-05-09T11:28:00.239Z,15.42
2024-05-09T11:29:02.741Z,15.29
2024-05-09T11:30:09.184Z,15.14
2024-05-09T11:31:11.033Z,14.98
2024-05-09T11:32:13.684Z,14.89
2024-05-09T11:33:20.140Z,14.87
2024-05-09T11:34:22.752Z,14.89
2024-05-09T11:35:25.192Z,14.95
2024-05-09T11:36:27.897Z,15.01
2024-05-09T11:37:30.994Z,15.07
2024-05-09T11:38:34.425Z,15.16
2024-05-09T11:39:36.909Z,15.23
2024-05-09T11:40:39.798Z,15.24
2024-05-09T11:41:42.269Z,15.18
2024-05-09T11:42:44.694Z,15.17
2024-05-09T11:43:47.172Z,15.17
2024-05-09T11:44:49.634Z,15.15
2024-05-09T11:45:52.225Z,15.17
2024-05-09T11:46:54.898Z,15.27
2024-05-09T11:47:57.468Z,15.38
2024-05-09T11:49:00.006Z,15.43
2024-05-09T11:50:04.340Z,15.48
2024-05-09T11:51:07.048Z,15.54
2024-05-09T11:52:09.451Z,15.57
2024-05-09T11:53:12.075Z,15.55
2024-05-09T11:54:15.354Z,15.53
2024-05-09T11:55:19.251Z,15.53
2024-05-09T11:56:21.864Z,15.56
2024-05-09T11:57:24.397Z,15.52
2024-05-09T11:58:26.597Z,15.49
2024-05-09T11:59:28.985Z,15.48
2024-05-09T12:00:36.786Z,15.50
2024-05-09T12:01:36.262Z,15.53
2024-05-09T12:02:38.962Z,15.55
2024-05-09T12:03:41.215Z,15.56
2024-05-09T12:04:43.699Z,15.59
2024-05-09T12:05:46.318Z,15.61
2024-05-09T12:06:49.019Z,15.62
2024-05-09T12:07:51.902Z,15.59
2024-05-09T12:08:55.118Z,15.63
2024-05-09T12:09:57.527Z,15.66
2024-05-09T12:10:59.910Z,15.71
2024-05-09T12:12:04.220Z,15.76
2024-05-09T12:13:07.442Z,15.86
2024-05-09T12:14:10.117Z,15.93
2024-05-09T12:15:12.783Z,16.04
2024-05-09T12:16:15.881Z,16.09
2024-05-09T12:17:18.381Z,16.11
2024-05-09T12:18:20.726Z,16.13
2024-05-09T12:19:23.311Z,16.19
2024-05-09T12:20:34.343Z,16.23
2024-05-09T12:21:30.206Z,16.22
2024-05-09T12:22:32.692Z,16.19
2024-05-09T12:23:34.992Z,16.14
2024-05-09T12:24:37.354Z,16.12
2024-05-09T12:25:40.212Z,16.11
2024-05-09T12:26:43.480Z,16.14
2024-05-09T12:27:45.796Z,16.12
2024-05-09T12:28:48.100Z,16.09
2024-05-09T12:29:50.462Z,16.12
2024-05-09T12:30:53.000Z,16.19
2024-05-09T12:31:55.309Z,16.30
2024-05-09T12:32:58.284Z,16.33
2024-05-09T12:34:00.733Z,16.31
2024-05-09T12:35:03.380Z,16.29
2024-05-09T12:36:06.736Z,16.29
2024-05-09T12:37:09.455Z,16.26
2024-05-09T12:38:12.123Z,16.28
2024-05-09T12:39:14.651Z,16.29
2024-05-09T12:40:26.258Z,16.35
2024-05-09T12:41:22.101Z,16.42
2024-05-09T12:42:27.466Z,16.53
2024-05-09T12:43:28.445Z,16.63
2024-05-09T12:44:30.898Z,16.71
2024-05-09T12:45:33.515Z,16.81
2024-05-09T12:46:36.497Z,16.86
2024-05-09T12:47:39.083Z,16.92
2024-05-09T12:48:41.431Z,16.95
2024-05-09T12:49:43.771Z,16.95
2024-05-09T12:50:46.583Z,16.99
2024-05-09T12:51:48.977Z,17.13
2024-05-09T12:52:51.342Z,17.23
2024-05-09T12:53:53.670Z,17.35
2024-05-09T12:54:55.931Z,17.45
2024-05-09T12:56:02.210Z,17.51
2024-05-09T12:57:04.657Z,17.51
2024-05-09T12:58:07.688Z,17.44
2024-05-09T12:59:10.189Z,17.37
2024-05-09T13:00:23.393Z,17.32
2024-05-09T13:01:18.181Z,17.37
2024-05-09T13:02:20.672Z,17.43
2024-05-09T13:03:23.191Z,17.49
2024-05-09T13:04:26.211Z,17.43
2024-05-09T13:05:29.232Z,17.35
2024-05-09T13:06:31.981Z,17.38
2024-05-09T13:07:34.348Z,17.45
2024-05-09T13:08:36.820Z,17.50
2024-05-09T13:09:39.106Z,17.51
2024-05-09T13:10:41.849Z,17.51
2024-05-09T13:11:44.668Z,17.63
2024-05-09T13:12:47.108Z,17.71
2024-05-09T13:13:49.398Z,17.71
2024-05-09T13:14:51.570Z,17.69
2024-05-09T13:15:54.306Z,17.66
2024-05-09T13:16:57.013Z,17.78
2024-05-09T13:18:02.633Z,17.87
2024-05-09T13:19:03.759Z,17.98
2024-05-09T13:20:11.970Z,18.02
2024-05-09T13:21:11.409Z,18.09
2024-05-09T13:22:13.660Z,18.08
2024-05-09T13:23:16.217Z,18.11
2024-05-09T13:24:18.664Z,18.14
2024-05-09T13:25:22.836Z,18.10
2024-05-09T13:26:25.286Z,18.05
2024-05-09T13:27:27.522Z,18.01
2024-05-09T13:28:29.878Z,18.02
2024-05-09T13:29:32.086Z,18.13
2024-05-09T13:30:39.813Z,18.26
2024-05-09T13:31:39.391Z,18.36
2024-05-09T13:32:42.182Z,18.50
2024-05-09T13:33:44.991Z,18.62
2024-05-09T13:34:49.210Z,18.52
2024-05-09T13:35:54.099Z,18.33
2024-05-09T13:36:56.995Z,18.19
2024-05-09T13:38:00.785Z,18.08
2024-05-09T13:39:03.341Z,18.05
2024-05-09T13:40:07.142Z,18.05
2024-05-09T13:41:09.916Z,18.08
2024-05-09T13:42:11.962Z,18.18
2024-05-09T13:43:14.495Z,18.30
2024-05-09T13:44:16.949Z,18.43
2024-05-09T13:45:19.161Z,18.49
2024-05-09T13:46:21.760Z,18.48
2024-05-09T13:47:24.306Z,18.50